createdAt,value
2023-07-31T00:01:37.800Z,15.32
2023-07-31T00:04:06.173Z,12.65
2023-07-31T00:06:35.940Z,16.90
2023-07-31T00:09:04.551Z,16.15
2023-07-31T00:11:32.883Z,15.52
2023-07-31T00:14:01.219Z,17.75
2023-07-31T00:16:31.196Z,14.63
2023-07-31T00:18:59.577Z,15.38
2023-07-31T00:21:27.902Z,17.52
2023-07-31T00:23:57.814Z,19.58
2023-07-31T00:26:26.143Z,18.27
2023-07-31T00:28:54.416Z,14.02
2023-07-31T00:31:22.831Z,15.63
2023-07-31T00:33:51.222Z,18.15
2023-07-31T00:36:20.031Z,14.98
2023-07-31T00:38:48.340Z,14.25
2023-07-31T00:41:18.001Z,15.48
2023-07-31T00:43:46.605Z,13.57
2023-07-31T00:46:15.190Z,13.65
2023-07-31T00:48:43.754Z,15.57
2023-07-31T00:51:13.004Z,18.17
2023-07-31T00:53:44.446Z,18.15
2023-07-31T00:56:13.508Z,17.83
2023-07-31T00:58:43.249Z,17.63
2023-07-31T01:01:11.716Z,19.40
2023-07-31T01:03:40.514Z,17.17
2023-07-31T01:06:18.121Z,16.42
2023-07-31T01:08:55.045Z,15.43
2023-07-31T01:11:28.249Z,18.52
2023-07-31T01:13:58.773Z,15.43
2023-07-31T01:16:28.000Z,15.48
2023-07-31T01:18:56.598Z,16.35
2023-07-31T01:21:37.241Z,15.93
2023-07-31T01:24:23.120Z,21.38
2023-07-31T01:26:59.037Z,18.60
2023-07-31T01:29:36.407Z,18.40
2023-07-31T01:32:07.066Z,16.10
2023-07-31T01:34:36.954Z,18.23
2023-07-31T01:37:05.920Z,18.33
2023-07-31T01:39:34.276Z,15.10
2023-07-31T01:42:03.941Z,15.45
2023-07-31T01:44:32.221Z,13.07
2023-07-31T01:47:01.312Z,14.25
2023-07-31T01:49:29.667Z,12.45
2023-07-31T01:51:57.930Z,18.33
2023-07-31T01:54:26.238Z,12.70
2023-07-31T01:56:54.601Z,15.05
2023-07-31T01:59:24.283Z,19.85
2023-07-31T02:01:54.969Z,16.13
2023-07-31T02:04:23.535Z,14.77
2023-07-31T02:06:51.892Z,12.43
2023-07-31T02:09:20.403Z,17.77
2023-07-31T02:11:48.763Z,14.15
2023-07-31T02:14:17.168Z,15.00
2023-07-31T02:16:46.867Z,15.57
2023-07-31T02:19:15.173Z,12.98
2023-07-31T02:21:44.054Z,11.77
2023-07-31T02:24:12.575Z,14.90
2023-07-31T02:26:41.527Z,15.48
2023-07-31T02:29:10.343Z,15.32
2023-07-31T02:31:38.789Z,18.85
2023-07-31T02:34:09.029Z,16.98
2023-07-31T02:36:37.592Z,14.80
2023-07-31T02:39:06.350Z,12.93
2023-07-31T02:41:34.640Z,12.70
2023-07-31T02:44:03.991Z,11.27
2023-07-31T02:46:32.764Z,13.93
2023-07-31T02:49:01.463Z,14.50
2023-07-31T02:51:31.232Z,14.45
2023-07-31T02:53:59.550Z,14.80
2023-07-31T02:56:28.028Z,10.07
2023-07-31T02:58:56.373Z,12.18
2023-07-31T03:01:24.746Z,13.10
2023-07-31T03:03:53.391Z,14.00
2023-07-31T03:06:21.763Z,13.50
2023-07-31T03:08:51.769Z,13.20
2023-07-31T03:11:20.078Z,11.68
2023-07-31T03:13:48.389Z,10.15
2023-07-31T03:16:16.728Z,12.95
2023-07-31T03:18:45.060Z,16.42
2023-07-31T03:21:13.394Z,12.68
2023-07-31T03:23:41.640Z,12.18
2023-07-31T03:26:11.788Z,16.52
2023-07-31T03:28:40.126Z,15.85
2023-07-31T03:31:09.519Z,12.82
2023-07-31T03:33:38.059Z,12.68
2023-07-31T03:36:07.172Z,12.95
2023-07-31T03:38:36.015Z,13.18
2023-07-31T03:41:07.572Z,17.23
2023-07-31T03:43:37.314Z,19.08
2023-07-31T03:46:05.855Z,12.57
2023-07-31T03:48:34.207Z,13.18
2023-07-31T03:51:02.528Z,14.23
2023-07-31T03:53:30.826Z,15.10
2023-07-31T03:55:59.182Z,15.40
2023-07-31T03:58:27.489Z,14.65
2023-07-31T04:00:57.178Z,14.80
2023-07-31T04:03:25.705Z,15.38
2023-07-31T04:05:56.105Z,15.10
2023-07-31T04:08:24.661Z,16.27
2023-07-31T04:10:53.049Z,13.85
2023-07-31T04:13:21.532Z,16.38
2023-07-31T04:15:51.757Z,15.85
2023-07-31T04:18:21.495Z,18.30
2023-07-31T04:20:49.789Z,15.38
2023-07-31T04:23:18.121Z,15.57
2023-07-31T04:25:46.689Z,17.05
2023-07-31T04:28:15.069Z,17.73
2023-07-31T04:30:43.450Z,19.38
2023-07-31T04:33:11.743Z,15.38
2023-07-31T04:35:41.391Z,15.77
2023-07-31T04:38:09.660Z,17.40
2023-07-31T04:40:38.195Z,15.02
2023-07-31T04:43:06.564Z,13.55
2023-07-31T04:45:34.813Z,15.93
2023-07-31T04:48:03.146Z,13.18
2023-07-31T04:50:32.138Z,15.55
2023-07-31T04:53:01.790Z,14.02
2023-07-31T04:55:30.093Z,14.50
2023-07-31T04:57:58.417Z,15.60
2023-07-31T05:00:26.820Z,12.30
2023-07-31T05:02:55.388Z,13.32
2023-07-31T05:05:23.756Z,13.20
2023-07-31T05:07:52.115Z,14.85
2023-07-31T05:10:21.831Z,9.45
2023-07-31T05:12:50.109Z,11.52
2023-07-31T05:15:18.522Z,12.43
2023-07-31T05:17:46.873Z,11.65
2023-07-31T05:20:15.982Z,13.10
2023-07-31T05:22:44.371Z,13.32
2023-07-31T05:25:12.824Z,11.55
2023-07-31T05:27:42.535Z,13.95
2023-07-31T05:30:11.354Z,11.75
2023-07-31T05:32:39.661Z,13.50
2023-07-31T05:35:08.670Z,13.02
2023-07-31T05:37:37.003Z,10.98
2023-07-31T05:40:06.203Z,10.15
2023-07-31T05:42:34.487Z,11.65
2023-07-31T05:45:04.383Z,11.50
2023-07-31T05:47:32.994Z,9.60
2023-07-31T05:50:01.308Z,11.57
2023-07-31T05:52:30.695Z,14.25
2023-07-31T05:54:59.008Z,14.07
2023-07-31T05:57:27.330Z,15.27
2023-07-31T05:59:55.616Z,12.57
2023-07-31T06:02:25.544Z,14.02
2023-07-31T06:04:54.001Z,12.02
2023-07-31T06:07:22.392Z,15.82
2023-07-31T06:09:50.682Z,13.40
2023-07-31T06:12:20.023Z,11.13
2023-07-31T06:14:48.428Z,13.13
2023-07-31T06:17:16.878Z,14.50
2023-07-31T06:19:46.559Z,16.85
2023-07-31T06:22:14.947Z,10.63
2023-07-31T06:24:43.319Z,11.15
2023-07-31T06:27:11.568Z,13.23
2023-07-31T06:29:40.015Z,10.38
2023-07-31T06:32:09.241Z,13.38
2023-07-31T06:34:37.648Z,14.60
2023-07-31T06:37:08.001Z,11.93
2023-07-31T06:39:36.330Z,13.82
2023-07-31T06:42:05.215Z,8.73
2023-07-31T06:44:33.510Z,15.05
2023-07-31T06:47:01.982Z,13.85
2023-07-31T06:49:30.284Z,11.82
2023-07-31T06:51:58.756Z,13.63
2023-07-31T06:54:28.400Z,13.73
2023-07-31T06:56:56.663Z,14.40
2023-07-31T06:59:25.027Z,14.57
2023-07-31T07:01:56.148Z,11.98
2023-07-31T07:04:24.474Z,14.68
2023-07-31T07:06:52.906Z,14.38
2023-07-31T07:09:21.184Z,13.07
2023-07-31T07:11:50.833Z,16.08
2023-07-31T07:14:19.152Z,13.98
2023-07-31T07:16:47.559Z,13.95
2023-07-31T07:19:15.886Z,10.50
2023-07-31T07:21:44.193Z,15.05
2023-07-31T07:24:12.496Z,15.23
2023-07-31T07:26:43.727Z,12.05
2023-07-31T07:29:13.409Z,11.52
2023-07-31T07:31:41.716Z,9.27
2023-07-31T07:34:10.021Z,12.63
2023-07-31T07:36:39.005Z,13.48
2023-07-31T07:39:07.509Z,11.80
2023-07-31T07:41:35.819Z,8.10
2023-07-31T07:44:04.145Z,10.70
2023-07-31T07:46:53.692Z,9.70
2023-07-31T07:49:41.007Z,7.32
2023-07-31T07:52:09.538Z,9.85
2023-07-31T07:54:44.641Z,7.47
2023-07-31T07:57:13.272Z,10.20
2023-07-31T07:59:41.639Z,10.80
2023-07-31T08:02:11.338Z,6.63
2023-07-31T08:04:39.705Z,8.25
2023-07-31T08:07:07.985Z,9.50
2023-07-31T08:09:36.308Z,6.10
2023-07-31T08:12:05.059Z,5.70
2023-07-31T08:14:33.615Z,7.47
2023-07-31T08:17:02.860Z,8.68
2023-07-31T08:19:33.884Z,9.98
2023-07-31T08:22:02.424Z,8.82
2023-07-31T08:24:30.726Z,6.95
2023-07-31T08:26:59.004Z,8.25
2023-07-31T08:29:27.596Z,8.13
2023-07-31T08:31:55.917Z,7.53
2023-07-31T08:34:24.249Z,8.50
2023-07-31T08:36:53.919Z,7.25
2023-07-31T08:39:22.214Z,8.15
2023-07-31T08:41:50.542Z,5.78
2023-07-31T08:44:20.328Z,7.03
2023-07-31T08:46:49.749Z,5.70
2023-07-31T08:49:20.120Z,6.35
2023-07-31T08:51:52.365Z,8.00
2023-07-31T08:54:22.681Z,6.63
2023-07-31T08:56:52.059Z,7.05
2023-07-31T08:59:22.520Z,8.00
2023-07-31T09:01:54.577Z,5.72
2023-07-31T09:04:24.939Z,7.22
2023-07-31T09:06:59.520Z,4.47
2023-07-31T09:09:29.292Z,7.28
2023-07-31T09:11:59.450Z,6.63
2023-07-31T09:14:28.395Z,3.50
2023-07-31T09:16:59.533Z,7.13
2023-07-31T09:19:29.271Z,5.07
2023-07-31T09:21:57.734Z,6.38
2023-07-31T09:24:31.643Z,6.93
2023-07-31T09:27:02.001Z,4.45
2023-07-31T09:29:31.827Z,4.30
2023-07-31T09:32:00.337Z,6.28
2023-07-31T09:34:38.794Z,6.30
2023-07-31T09:37:07.588Z,5.60
2023-07-31T09:39:48.169Z,4.00
2023-07-31T09:42:17.022Z,5.32
2023-07-31T09:44:45.331Z,5.65
2023-07-31T09:47:25.946Z,6.95
2023-07-31T09:49:55.065Z,5.18
2023-07-31T09:52:23.545Z,5.75
2023-07-31T09:54:53.187Z,7.32
2023-07-31T09:57:24.801Z,5.53
2023-07-31T09:59:55.456Z,6.68
2023-07-31T10:02:24.868Z,7.57
2023-07-31T10:04:53.943Z,8.52
2023-07-31T10:07:24.834Z,6.90
2023-07-31T10:09:56.553Z,5.35
2023-07-31T10:12:29.204Z,7.75
2023-07-31T10:14:58.099Z,5.65
2023-07-31T10:17:28.038Z,7.20
2023-07-31T10:19:56.549Z,6.53
2023-07-31T10:22:25.919Z,6.82
2023-07-31T10:24:57.450Z,6.97
2023-07-31T10:27:25.816Z,8.85
2023-07-31T10:29:56.550Z,6.97
2023-07-31T10:32:26.046Z,10.38
2023-07-31T10:34:54.907Z,7.55
2023-07-31T10:37:27.672Z,8.18
2023-07-31T10:40:02.908Z,7.53
2023-07-31T10:42:33.888Z,6.57
2023-07-31T10:45:03.526Z,7.40
2023-07-31T10:47:32.138Z,10.63
2023-07-31T10:50:19.884Z,6.97
2023-07-31T10:52:53.972Z,7.15
2023-07-31T10:55:29.326Z,8.75
2023-07-31T10:57:59.520Z,7.05
2023-07-31T11:00:30.051Z,7.43
2023-07-31T11:03:03.266Z,10.25
2023-07-31T11:05:49.241Z,8.57
2023-07-31T11:08:19.450Z,9.20
2023-07-31T11:10:51.022Z,12.65
2023-07-31T11:13:19.554Z,10.38
2023-07-31T11:15:47.836Z,8.82
2023-07-31T11:18:17.960Z,10.30
2023-07-31T11:20:46.657Z,9.90
2023-07-31T11:23:15.213Z,9.18
2023-07-31T11:25:43.562Z,11.93
2023-07-31T11:28:15.611Z,11.68
2023-07-31T11:30:45.538Z,11.70
2023-07-31T11:33:15.506Z,10.93
2023-07-31T11:35:46.295Z,12.23
2023-07-31T11:38:23.719Z,9.10
2023-07-31T11:40:52.504Z,8.95
2023-07-31T11:43:23.274Z,11.75
2023-07-31T11:45:53.125Z,8.27
2023-07-31T11:48:23.003Z,8.95
2023-07-31T11:50:53.160Z,13.00
2023-07-31T11:53:26.808Z,10.25
2023-07-31T11:55:56.140Z,10.98
2023-07-31T11:58:26.038Z,9.23
2023-07-31T12:00:55.051Z,9.90
2023-07-31T12:03:23.810Z,11.65
2023-07-31T12:05:52.182Z,11.35
2023-07-31T12:08:23.386Z,9.23
2023-07-31T12:10:53.178Z,9.88
2023-07-31T12:13:27.637Z,11.05
2023-07-31T12:15:58.576Z,9.85
2023-07-31T12:18:28.636Z,7.90
2023-07-31T12:20:58.521Z,9.82
2023-07-31T12:23:29.989Z,11.80
2023-07-31T12:26:06.257Z,8.98
2023-07-31T12:28:39.876Z,8.68
2023-07-31T12:31:09.411Z,11.07
2023-07-31T12:33:39.091Z,9.65
2023-07-31T12:36:12.069Z,10.65
2023-07-31T12:38:40.729Z,8.70
2023-07-31T12:41:09.200Z,8.45
2023-07-31T12:43:41.330Z,12.70
2023-07-31T12:46:10.367Z,12.40
2023-07-31T12:48:39.402Z,10.00
2023-07-31T12:51:09.089Z,11.15
2023-07-31T12:53:37.666Z,11.93
2023-07-31T12:56:06.183Z,11.40
2023-07-31T12:58:34.599Z,15.30
2023-07-31T13:01:04.429Z,12.32
2023-07-31T13:03:32.954Z,10.65
2023-07-31T13:06:01.404Z,10.73
2023-07-31T13:08:29.684Z,11.73
2023-07-31T13:10:57.996Z,11.18
2023-07-31T13:13:26.363Z,10.77
2023-07-31T13:15:54.650Z,12.93
2023-07-31T13:18:24.357Z,14.98
2023-07-31T13:20:52.596Z,11.35
2023-07-31T13:23:20.892Z,11.77
2023-07-31T13:25:49.187Z,10.38
2023-07-31T13:28:17.498Z,7.55
2023-07-31T13:30:47.211Z,11.15
2023-07-31T13:33:33.913Z,12.52
2023-07-31T13:36:04.490Z,11.52
2023-07-31T13:38:32.818Z,8.57
2023-07-31T13:41:01.096Z,9.45
2023-07-31T13:43:29.356Z,10.35
2023-07-31T13:45:57.721Z,7.97
2023-07-31T13:48:25.964Z,7.00
2023-07-31T13:50:57.234Z,6.80
2023-07-31T13:53:26.930Z,8.10
2023-07-31T13:55:55.396Z,7.32
2023-07-31T13:58:23.706Z,8.38
2023-07-31T14:00:52.072Z,5.97
2023-07-31T14:03:20.462Z,5.88
2023-07-31T14:05:48.956Z,5.50
2023-07-31T14:08:17.252Z,5.63
2023-07-31T14:10:46.940Z,5.90
2023-07-31T14:13:15.311Z,7.68
2023-07-31T14:15:44.660Z,4.13
2023-07-31T14:18:13.201Z,5.85
2023-07-31T14:20:41.759Z,4.80
2023-07-31T14:23:10.064Z,5.68
2023-07-31T14:25:38.324Z,5.82
2023-07-31T14:28:08.077Z,5.63
2023-07-31T14:30:36.618Z,7.43
2023-07-31T14:33:05.135Z,6.40
2023-07-31T14:35:33.519Z,6.35
2023-07-31T14:38:01.750Z,8.38
2023-07-31T14:40:30.219Z,6.70
2023-07-31T14:42:58.592Z,7.60
2023-07-31T14:45:28.291Z,7.85
2023-07-31T14:47:56.639Z,8.30
2023-07-31T14:50:25.549Z,8.32
2023-07-31T14:52:54.113Z,6.90
2023-07-31T14:55:22.425Z,6.70
2023-07-31T14:57:50.879Z,7.25
2023-07-31T15:00:19.525Z,7.10
2023-07-31T15:02:49.293Z,9.80
2023-07-31T15:05:17.687Z,6.38
2023-07-31T15:07:46.053Z,6.13
2023-07-31T15:10:14.309Z,5.10
2023-07-31T15:12:44.363Z,6.57
2023-07-31T15:15:12.772Z,7.18
2023-07-31T15:17:41.109Z,5.78
2023-07-31T15:20:13.138Z,6.50
2023-07-31T15:22:41.456Z,4.38
2023-07-31T15:25:16.570Z,7.38
2023-07-31T15:27:48.017Z,7.10
2023-07-31T15:30:16.539Z,5.43
2023-07-31T15:32:51.557Z,6.15
2023-07-31T15:35:26.712Z,4.40
2023-07-31T15:37:56.491Z,7.20
2023-07-31T15:40:28.799Z,4.80
2023-07-31T15:43:03.752Z,7.15
2023-07-31T15:45:33.202Z,4.32
2023-07-31T15:48:02.176Z,5.25
2023-07-31T15:50:34.738Z,4.15
2023-07-31T15:53:03.732Z,6.18
2023-07-31T15:55:32.728Z,7.10
2023-07-31T15:58:02.370Z,3.92
2023-07-31T16:00:31.367Z,3.85
2023-07-31T16:03:03.621Z,4.20
2023-07-31T16:05:38.466Z,4.88
2023-07-31T16:08:13.427Z,4.13
2023-07-31T16:10:45.613Z,5.00
2023-07-31T16:13:16.529Z,4.15
2023-07-31T16:15:47.020Z,5.90
2023-07-31T16:18:24.143Z,4.45
2023-07-31T16:24:22.726Z,4.20
2023-07-31T16:27:09.501Z,4.85
2023-07-31T16:29:50.394Z,5.68
2023-07-31T16:32:30.036Z,5.72
2023-07-31T16:35:08.719Z,5.50
2023-07-31T16:37:41.503Z,4.90
2023-07-31T16:40:15.973Z,4.65
2023-07-31T16:42:50.239Z,4.25
2023-07-31T16:45:25.498Z,4.45
2023-07-31T16:47:59.542Z,3.95
2023-07-31T16:50:35.971Z,6.10
2023-07-31T16:53:12.320Z,5.28
2023-07-31T16:55:54.113Z,5.28
2023-07-31T16:58:30.574Z,5.53
2023-07-31T17:01:10.173Z,4.13
2023-07-31T17:03:46.593Z,5.85
2023-07-31T17:06:24.334Z,3.53
2023-07-31T17:08:56.258Z,4.32
2023-07-31T17:11:24.575Z,4.90
2023-07-31T17:13:53.013Z,4.25
2023-07-31T17:16:21.808Z,3.95
2023-07-31T17:18:50.424Z,5.47
2023-07-31T17:21:18.780Z,5.65
2023-07-31T17:23:47.062Z,3.22
2023-07-31T17:26:16.823Z,3.70
2023-07-31T17:28:45.163Z,2.30
2023-07-31T17:31:14.140Z,2.83
2023-07-31T17:33:42.709Z,1.48
2023-07-31T17:36:11.201Z,1.75
2023-07-31T17:38:39.535Z,2.33
2023-07-31T17:41:09.565Z,2.80
2023-07-31T17:43:39.413Z,3.70
2023-07-31T17:46:09.048Z,2.67
2023-07-31T17:48:39.328Z,1.73
2023-07-31T17:51:07.762Z,2.60
2023-07-31T17:53:36.062Z,1.83
2023-07-31T17:56:04.452Z,2.17
2023-07-31T17:58:32.967Z,1.90
2023-07-31T18:01:02.620Z,2.50
2023-07-31T18:03:31.791Z,2.47
2023-07-31T18:06:00.261Z,1.60
2023-07-31T18:08:28.540Z,2.60
2023-07-31T18:10:56.906Z,2.13
2023-07-31T18:13:25.273Z,2.72
2023-07-31T18:15:53.627Z,5.72
2023-07-31T18:18:23.305Z,2.70
2023-07-31T18:20:51.606Z,2.15
2023-07-31T18:23:19.930Z,2.65
2023-07-31T18:25:49.600Z,1.15
2023-07-31T18:28:17.930Z,2.22
2023-07-31T18:30:46.376Z,1.83
2023-07-31T18:33:14.730Z,2.15
2023-07-31T18:35:44.416Z,2.45
2023-07-31T18:38:12.742Z,2.17
2023-07-31T18:40:41.035Z,1.88
2023-07-31T18:43:09.408Z,5.38
2023-07-31T18:45:37.723Z,1.92
2023-07-31T18:48:06.244Z,1.77
2023-07-31T18:50:34.619Z,3.67
2023-07-31T18:53:04.353Z,2.75
2023-07-31T18:55:33.246Z,2.90
2023-07-31T18:58:01.634Z,2.08
2023-07-31T19:00:30.035Z,2.40
2023-07-31T19:02:58.411Z,3.17
2023-07-31T19:05:26.825Z,3.47
2023-07-31T19:07:55.122Z,2.33
2023-07-31T19:10:24.770Z,5.15
2023-07-31T19:12:53.805Z,2.63
2023-07-31T19:15:22.179Z,2.83
2023-07-31T19:17:50.879Z,2.50
2023-07-31T19:20:19.386Z,5.97
2023-07-31T19:22:47.726Z,6.57
2023-07-31T19:25:16.089Z,4.53
2023-07-31T19:27:46.747Z,7.03
2023-07-31T19:30:16.397Z,5.22
2023-07-31T19:32:44.773Z,8.52
2023-07-31T19:35:14.995Z,7.32
2023-07-31T19:37:43.339Z,6.35
2023-07-31T19:40:12.371Z,7.25
2023-07-31T19:42:40.713Z,5.70
2023-07-31T19:45:11.719Z,6.97
2023-07-31T19:47:40.096Z,5.45
2023-07-31T19:50:09.520Z,6.93
2023-07-31T19:52:37.889Z,7.72
2023-07-31T19:55:07.096Z,6.00
2023-07-31T19:57:35.471Z,6.32
2023-07-31T20:00:05.480Z,6.13
2023-07-31T20:02:39.939Z,6.60
2023-07-31T20:05:09.600Z,8.35
2023-07-31T20:07:37.934Z,6.00
2023-07-31T20:10:06.893Z,11.32
2023-07-31T20:12:35.227Z,8.57
2023-07-31T20:15:05.933Z,10.57
2023-07-31T20:17:34.342Z,12.27
2023-07-31T20:20:04.038Z,12.43
2023-07-31T20:22:32.359Z,9.10
2023-07-31T20:25:00.724Z,12.43
2023-07-31T20:27:29.050Z,9.93
2023-07-31T20:29:57.661Z,8.25
2023-07-31T20:32:25.977Z,6.45
2023-07-31T20:34:54.294Z,10.07
2023-07-31T20:37:24.064Z,5.10
2023-07-31T20:39:52.355Z,5.18
2023-07-31T20:42:21.980Z,3.30
2023-07-31T20:44:50.343Z,2.90
2023-07-31T20:47:18.701Z,3.70
2023-07-31T20:49:47.055Z,3.78
2023-07-31T20:52:15.344Z,3.30
2023-07-31T20:54:45.059Z,4.15
2023-07-31T20:57:13.540Z,2.28
2023-07-31T20:59:41.987Z,4.05
2023-07-31T21:02:10.585Z,2.67
2023-07-31T21:04:39.163Z,2.40
2023-07-31T21:07:11.353Z,3.75
2023-07-31T21:09:39.660Z,2.67
2023-07-31T21:12:10.362Z,3.22
2023-07-31T21:14:38.686Z,2.78
2023-07-31T21:17:08.539Z,3.50
2023-07-31T21:19:36.904Z,2.60
2023-07-31T21:22:05.470Z,4.05
2023-07-31T21:24:33.775Z,2.63
2023-07-31T21:27:02.235Z,2.30
2023-07-31T21:29:32.021Z,2.97
2023-07-31T21:32:00.398Z,3.38
2023-07-31T21:34:30.234Z,3.67
2023-07-31T21:36:58.526Z,3.05
2023-07-31T21:39:26.836Z,4.32
2023-07-31T21:41:55.251Z,3.45
2023-07-31T21:44:23.560Z,4.50
2023-07-31T21:46:53.242Z,5.82
2023-07-31T21:49:21.665Z,3.65
2023-07-31T21:51:50.038Z,3.70
2023-07-31T21:54:18.701Z,4.28
2023-07-31T21:56:47.051Z,4.07
2023-07-31T21:59:15.352Z,5.80
2023-07-31T22:01:43.741Z,5.05
2023-07-31T22:04:13.397Z,4.97
2023-07-31T22:06:41.971Z,3.33
2023-07-31T22:09:10.491Z,4.40
2023-07-31T22:11:38.746Z,3.60
2023-07-31T22:14:07.072Z,4.28
2023-07-31T22:16:36.110Z,2.80
2023-07-31T22:19:04.557Z,4.40
2023-07-31T22:21:34.685Z,5.85
2023-07-31T22:24:03.052Z,5.78
2023-07-31T22:26:31.352Z,5.07
2023-07-31T22:28:59.707Z,5.63
2023-07-31T22:31:27.997Z,5.15
2023-07-31T22:33:56.530Z,5.40
2023-07-31T22:36:24.826Z,7.00
2023-07-31T22:38:54.495Z,4.45
2023-07-31T22:41:22.758Z,5.57
2023-07-31T22:43:51.053Z,3.72
2023-07-31T22:46:19.419Z,5.03
2023-07-31T22:48:48.260Z,5.97
2023-07-31T22:51:16.533Z,6.25
2023-07-31T22:53:44.849Z,5.78
2023-07-31T22:56:14.492Z,4.75
2023-07-31T22:58:42.791Z,7.20
2023-07-31T23:01:11.561Z,7.20
2023-07-31T23:03:39.850Z,7.72
2023-07-31T23:06:08.362Z,5.80
2023-07-31T23:08:36.806Z,9.00
2023-07-31T23:11:05.106Z,7.15
2023-07-31T23:13:35.472Z,6.93
2023-07-31T23:16:03.995Z,6.95
2023-07-31T23:18:32.512Z,8.90
2023-07-31T23:21:00.835Z,11.38
2023-07-31T23:23:29.188Z,11.32
2023-07-31T23:25:57.575Z,10.77
2023-07-31T23:28:25.909Z,10.90
2023-07-31T23:30:55.621Z,11.43
2023-07-31T23:33:23.953Z,13.68
2023-07-31T23:35:52.243Z,13.77
2023-07-31T23:38:21.439Z,14.00
2023-07-31T23:40:49.712Z,14.05
2023-07-31T23:43:18.054Z,17.77
2023-07-31T23:45:46.362Z,19.75
2023-07-31T23:48:16.069Z,18.55
2023-07-31T23:50:44.361Z,20.55
2023-07-31T23:53:12.753Z,18.17
2023-07-31T23:55:41.127Z,20.53
2023-07-31T23:58:09.945Z,18.60
